ROMMA est une association bénévole à but non lucratif. Votre soutien est indispensable : ADHERER à ROMMA ou FAIRE un DON

Granges-lès-Beaumont - (26, Drôme)

Drôme des Collines (155 m)   Longitude: 04°58'E   Latitude: 45°03'N Station partenaire n°123
 

Détail journalier du     <<     >>

Température Precipitation Humidité Pression Vent Dir Rafale Dir. rafale Ensol.
Heure (°C) (mm) (%) (hPa) (km/h) (km/h) (min)
01:00 4.309510081ENE6ENE0
02:00 4.80.49410082ENE10E0
03:00 5.40.29310087E16E0
04:00 6.209010086ESE18E0
05:00 6.309010084SE15SE0
06:00 5.909210085ESE11ESE0
07:00 5.209310094NE11ENE0
08:00 5.609410095ENE13ENE0
09:00 5.809310093ENE6ENE0
10:00 7.408710101N5NO0
11:00 8.1084101000---0
12:00 8.908110112NNO8NNO0
13:00 9.907810104NNO15NNO0
14:00 10.5072101110N21N0
15:00 11.3070101114NNE24NE30
16:00 10.7070101114NNE26NNE10
17:00 10.2069101214NNE24NNE40
18:00 9.407410129N16NNE0
19:00 8.407810139NNO18N0
20:00 7.208210149NNO15NNO0
21:00 6.608510147NNO15NNO0
22:00 6.308610148NNO18N0
23:00 5.808710148NNO15NNO0
minuit 5.708710149NNO16NO0

Graphique du 10-11-2019

 

Serveur OMMA